sensor_id;sensor_type;location;lat;lon;timestamp;temperature;humidity
23729;DHT22;12045;60.214;24.724;2023-05-29T18:39:25;12.30;73.00
23729;DHT22;12045;60.214;24.724;2023-05-29T18:41:52;12.30;73.70
23729;DHT22;12045;60.214;24.724;2023-05-29T18:44:20;12.30;74.10
23729;DHT22;12045;60.214;24.724;2023-05-29T18:46:47;12.20;74.10
23729;DHT22;12045;60.214;24.724;2023-05-29T18:49:15;12.20;74.40
23729;DHT22;12045;60.214;24.724;2023-05-29T18:51:42;12.20;74.20
23729;DHT22;12045;60.214;24.724;2023-05-29T18:54:10;12.10;74.30
23729;DHT22;12045;60.214;24.724;2023-05-29T18:56:37;12.10;74.80
23729;DHT22;12045;60.214;24.724;2023-05-29T18:59:05;12.10;74.60
23729;DHT22;12045;60.214;24.724;2023-05-29T19:01:33;12.10;74.50
23729;DHT22;12045;60.214;24.724;2023-05-29T19:04:02;11.60;74.00
23729;DHT22;12045;60.214;24.724;2023-05-29T19:06:30;11.90;74.20
23729;DHT22;12045;60.214;24.724;2023-05-29T19:08:59;13.10;75.10
23729;DHT22;12045;60.214;24.724;2023-05-29T19:11:28;12.00;74.70
23729;DHT22;12045;60.214;24.724;2023-05-29T19:13:56;12.00;74.50
23729;DHT22;12045;60.214;24.724;2023-05-29T19:16:23;12.00;74.40
23729;DHT22;12045;60.214;24.724;2023-05-29T19:18:51;12.00;74.40
23729;DHT22;12045;60.214;24.724;2023-05-29T19:21:20;12.00;74.50
23729;DHT22;12045;60.214;24.724;2023-05-29T19:23:47;12.10;74.90
23729;DHT22;12045;60.214;24.724;2023-05-29T19:26:16;12.10;74.00
23729;DHT22;12045;60.214;24.724;2023-05-29T19:28:43;11.90;73.40
23729;DHT22;12045;60.214;24.724;2023-05-29T19:31:11;11.90;74.00
23729;DHT22;12045;60.214;24.724;2023-05-29T19:33:39;11.50;73.20
23729;DHT22;12045;60.214;24.724;2023-05-29T19:36:07;11.60;72.90
23729;DHT22;12045;60.214;24.724;2023-05-29T19:38:35;11.50;71.80
23729;DHT22;12045;60.214;24.724;2023-05-29T19:41:02;11.50;71.60
23729;DHT22;12045;60.214;24.724;2023-05-29T19:43:32;11.40;70.50
23729;DHT22;12045;60.214;24.724;2023-05-29T19:46:00;11.50;70.20
23729;DHT22;12045;60.214;24.724;2023-05-29T19:48:33;11.50;69.40
23729;DHT22;12045;60.214;24.724;2023-05-29T19:51:05;11.50;69.20
23729;DHT22;12045;60.214;24.724;2023-05-29T19:53:33;11.50;68.40
23729;DHT22;12045;60.214;24.724;2023-05-29T19:56:01;11.50;68.30
23729;DHT22;12045;60.214;24.724;2023-05-29T19:58:29;11.40;68.00
23729;DHT22;12045;60.214;24.724;2023-05-29T20:00:56;11.30;67.30
23729;DHT22;12045;60.214;24.724;2023-05-29T20:03:25;11.20;67.40
23729;DHT22;12045;60.214;24.724;2023-05-29T20:05:57;11.50;68.20
23729;DHT22;12045;60.214;24.724;2023-05-29T20:08:24;11.40;67.90
23729;DHT22;12045;60.214;24.724;2023-05-29T20:10:52;11.40;66.30
23729;DHT22;12045;60.214;24.724;2023-05-29T20:13:26;11.20;66.20
23729;DHT22;12045;60.214;24.724;2023-05-29T20:15:56;11.20;66.60
23729;DHT22;12045;60.214;24.724;2023-05-29T20:18:24;11.10;65.00
